Terminal Aerodrome Forecast
Issued by NWS

Home | Current Version | Previous Version | Text Only | Print | Product List | Glossary On
Versions: 1 2 3 4 5 6 7 8 9 10 11 12 13 14 15
000
FTUS45 KRIW 221124
TAFCPR
TAF
KCPR 221124Z 2212/2312 22014G20KT P6SM BKN100
     FM221500 23020G30KT P6SM SCT090 BKN120
     FM230000 23014G20KT P6SM SCT120 BKN250=

USA.gov is the U.S. government's official web portal to all federal, state and local government web resources and services.